Fonda, North Dakota
Current Conditions -  °F | °C
As of 11:15 AM on Friday 19 Dec 2014 (Local Time) from KRUG Reporting Station
Haze Haze  
Wind Chill: 27°   Ceiling: 400
Heat Index: 27°   Visibility: 5mi
Dew Point: 27°   Wind: 0mph
Humidity: 100%   Direction: NA
Pressure: 29.95"   Gusts: NA
Location:  48.632°N, 99.9505°W
Report Text: KRUG 191715Z AUTO 00000KT 5SM BR OVC004 M03/M03 A2995 RMK AO2
Loading
Personal Weather Stations






























Interactive Weather Map New forecast layout! Learn more

10-Day Weather Forecast

Advertisements
Track Severe Weather on mobile